Bob Shea Ex: Big Bob — WCY5041 — position and weather

sailwx.info

Track history (hours):
 
Tides and Currents Weather Stations Pressure Air Temp Water Temp Dewpoint Dewpoint Depression Visibility Wind Speed Wind Dir Waves Ship Positions

Bob Shea Ex: Big Bob

Owner: BLESSEY ENTERPRISES INC, HARAHAN, LA. More information available from US FCC via Universal Licensing System and Coast Guard Vessel Documentation Center.

Last reported at 2017-Oct-18 13:55 UTC. Time now 2017-Oct-20 03:14 UTC.
Position N 38°15' W 075°50'.

Length 16 m; draft 2.6 m.

Type: Towing. MMSI: 366934030.

Date/timePositionNaut miles runAvg speedWind from/ knotsBaromVisibWave heightAir tempDewpointWater temp
2017-Oct-18 13:55N 38°15' W 075°50'5 5.6
2017-Oct-18 13:05N 38°13' W 075°55'0 6.4
2017-Oct-18 13:00N 38°12' W 075°56'2 4.3
2017-Oct-18 12:30N 38°13' W 075°58'0 0.1
2017-Oct-18 11:55N 38°13' W 075°58'0 0.0
2017-Oct-18 11:29N 38°13' W 075°58'0 0.0
2017-Oct-18 10:53N 38°13' W 075°58'0 0.0
2017-Oct-18 10:20N 38°13' W 075°58'0 0.2
2017-Oct-18 09:59N 38°13' W 075°58'2 4.7
2017-Oct-18 09:30N 38°12' W 075°56'3 5.6
2017-Oct-18 09:00N 38°14' W 075°52'3 3.3
2017-Oct-18 08:14N 38°15' W 075°50'5 4.7
2017-Oct-18 07:06N 38°12' W 075°55'1 5.4
2017-Oct-18 06:57N 38°12' W 075°57'10 5.1
2017-Oct-18 04:58N 38°11' W 076°09'12 6.6
2017-Oct-18 03:10N 38°01' W 076°18'1 6.2
2017-Oct-18 02:58N 38°01' W 076°20'3 6.6
2017-Oct-18 02:27N 38°02' W 076°24'3 6.6
2017-Oct-18 02:00N 38°02' W 076°28'3 6.2
2017-Oct-18 01:30N 38°02' W 076°32'2 4.0
2017-Oct-18 01:00N 38°02' W 076°34'0 0.2
2017-Oct-18 00:27N 38°02' W 076°35'0 0.0
2017-Oct-18 00:00N 38°02' W 076°35'0 0.0
2017-Oct-17 23:27N 38°02' W 076°35'0 0.0
2017-Oct-17 22:54N 38°02' W 076°35'0 0.0
2017-Oct-17 22:30N 38°02' W 076°35'0 0.0
2017-Oct-17 21:59N 38°02' W 076°35'0 0.0
2017-Oct-17 21:29N 38°02' W 076°35'0 0.0
2017-Oct-17 20:58N 38°02' W 076°35'0 0.0
2017-Oct-17 20:30N 38°02' W 076°35'0 0.0
2017-Oct-17 20:00N 38°02' W 076°35'0 0.0
2017-Oct-17 19:30N 38°02' W 076°35'0 0.0
2017-Oct-17 19:00N 38°02' W 076°35'0 0.0
2017-Oct-17 18:28N 38°02' W 076°35'0 0.0
2017-Oct-17 17:58N 38°02' W 076°35'0 0.0
2017-Oct-17 17:30N 38°02' W 076°35'0 0.0
2017-Oct-17 16:59N 38°02' W 076°35'0 0.0
2017-Oct-17 16:29N 38°02' W 076°35'0 0.0
2017-Oct-17 15:59N 38°02' W 076°35'0 0.0
2017-Oct-17 15:30N 38°02' W 076°35'0 0.0
2017-Oct-17 15:00N 38°02' W 076°35'0 0.0
2017-Oct-17 14:29N 38°02' W 076°35'0 0.0
2017-Oct-17 13:56N 38°02' W 076°35'0 0.0
2017-Oct-17 13:30N 38°02' W 076°35'0 0.0
2017-Oct-17 13:00N 38°02' W 076°35'0 0.0
2017-Oct-17 12:30N 38°02' W 076°35'0 0.0
2017-Oct-17 11:59N 38°02' W 076°35'0 0.0
2017-Oct-17 11:30N 38°02' W 076°35'0 0.0
2017-Oct-17 10:59N 38°02' W 076°35'0 0.0
2017-Oct-17 10:30N 38°02' W 076°35'0 0.0
2017-Oct-17 10:00N 38°02' W 076°35'0 0.0
2017-Oct-17 09:30N 38°02' W 076°35'0 0.0
2017-Oct-17 09:00N 38°02' W 076°35'0 0.0
2017-Oct-17 08:30N 38°02' W 076°35'0 0.0
2017-Oct-17 08:00N 38°02' W 076°35'0 0.0
2017-Oct-17 07:30N 38°02' W 076°35'0 0.0
2017-Oct-17 07:00N 38°02' W 076°35'0 0.0
2017-Oct-17 06:30N 38°02' W 076°35'0 0.0
2017-Oct-17 06:00N 38°02' W 076°35'0 0.0
2017-Oct-17 05:30N 38°02' W 076°35'0 0.0
2017-Oct-17 04:59N 38°02' W 076°35'0 0.0
2017-Oct-17 04:29N 38°02' W 076°35'0 0.0
2017-Oct-17 03:59N 38°02' W 076°35'0 0.0
2017-Oct-17 03:15N 38°02' W 076°35'0 0.0
2017-Oct-17 03:00N 38°02' W 076°35'0 0.0
2017-Oct-17 02:30N 38°02' W 076°35'0 0.0
2017-Oct-17 02:00N 38°02' W 076°35'0 0.0
2017-Oct-17 01:30N 38°02' W 076°35'0 0.0
2017-Oct-17 01:00N 38°02' W 076°35'0 0.0
2017-Oct-17 00:30N 38°02' W 076°35'0 0.0
2017-Oct-16 23:59N 38°02' W 076°35'0 0.0
2017-Oct-16 23:29N 38°02' W 076°35'0 0.0
2017-Oct-16 22:55N 38°02' W 076°35'0 0.0
2017-Oct-16 22:30N 38°02' W 076°35'0 0.0
2017-Oct-16 22:00N 38°02' W 076°35'0 0.0
2017-Oct-16 21:30N 38°02' W 076°35'0 0.0
2017-Oct-16 21:00N 38°02' W 076°35'0 0.0
2017-Oct-16 20:30N 38°02' W 076°35'0 0.0
2017-Oct-16 20:00N 38°02' W 076°35'0 0.0
2017-Oct-16 19:28N 38°02' W 076°35'0 0.0
2017-Oct-16 19:00N 38°02' W 076°35'0 0.0
2017-Oct-16 18:30N 38°02' W 076°35'0 0.0
2017-Oct-16 18:00N 38°02' W 076°35'0 0.0
2017-Oct-16 17:19N 38°02' W 076°35'0 0.0
2017-Oct-16 16:52N 38°02' W 076°35'0 0.0
2017-Oct-16 16:30N 38°02' W 076°35'0 0.0
2017-Oct-16 15:59N 38°02' W 076°35'0 0.0
2017-Oct-16 15:29N 38°02' W 076°35'0 0.0
2017-Oct-16 14:57N 38°02' W 076°35'0 0.0
2017-Oct-16 14:24N 38°02' W 076°35'0 0.0
2017-Oct-16 13:24N 38°02' W 076°35'0 0.0
2017-Oct-16 12:59N 38°02' W 076°35'0 0.0
2017-Oct-16 12:29N 38°02' W 076°35'0 0.0
2017-Oct-16 11:59N 38°02' W 076°35'0 0.0
2017-Oct-16 11:29N 38°02' W 076°35'0 0.0
2017-Oct-16 11:00N 38°02' W 076°35'0 0.0
2017-Oct-16 10:30N 38°02' W 076°35'0 0.0
2017-Oct-16 10:00N 38°02' W 076°35'0 0.0
2017-Oct-16 09:30N 38°02' W 076°35'0 0.0
2017-Oct-16 09:00N 38°02' W 076°35'0 0.0
2017-Oct-16 08:30N 38°02' W 076°35'0 0.0
2017-Oct-16 08:00N 38°02' W 076°35'0 0.0
2017-Oct-16 07:29N 38°02' W 076°35'0 0.0
2017-Oct-16 07:00N 38°02' W 076°35'0 0.0
2017-Oct-16 06:28N 38°02' W 076°35'0 0.0
2017-Oct-16 06:00N 38°02' W 076°35'0 0.0
2017-Oct-16 05:30N 38°02' W 076°35'0 0.0
2017-Oct-16 05:00N 38°02' W 076°35'0 0.0
2017-Oct-16 04:30N 38°02' W 076°35'0 0.0
2017-Oct-16 03:57N 38°02' W 076°35'0 0.0
2017-Oct-16 03:29N 38°02' W 076°35'0 0.0
2017-Oct-16 02:59N 38°02' W 076°35'0 0.0
2017-Oct-16 02:29N 38°02' W 076°35'0 0.0
2017-Oct-16 01:59N 38°02' W 076°35'0 0.0
2017-Oct-16 01:29N 38°02' W 076°35'0 0.0
2017-Oct-16 00:59N 38°02' W 076°35'0 0.0
2017-Oct-16 00:30N 38°02' W 076°34'0 0.1
2017-Oct-16 00:00N 38°02' W 076°35'0 0.2
2017-Oct-15 23:30N 38°02' W 076°34'4 6.3
2017-Oct-15 22:56N 38°02' W 076°30'2 4.7
2017-Oct-15 22:30N 38°02' W 076°27'3 6.3
2017-Oct-15 21:59N 38°02' W 076°23'3 6.2
2017-Oct-15 21:30N 38°01' W 076°19'40 5.2
2017-Oct-15 13:48N 38°22' W 075°36'0 0.4
2017-Oct-15 13:26N 38°22' W 075°36'0 0.7
2017-Oct-15 12:58N 38°22' W 075°36'5 4.1
2017-Oct-15 11:43N 38°21' W 075°43'2 4.8
2017-Oct-15 11:23N 38°19' W 075°44'2 4.6
2017-Oct-15 11:00N 38°18' W 075°46'2 4.5
2017-Oct-15 10:31N 38°16' W 075°47'3 4.3
2017-Oct-15 09:55N 38°15' W 075°50'2 4.8
2017-Oct-15 09:31N 38°14' W 075°52'3 4.2
2017-Oct-15 08:51N 38°13' W 075°55'6 4.3
2017-Oct-15 07:27N 38°07' W 075°59'3 5.2
2017-Oct-15 06:56N 38°05' W 075°58'4 5.4
2017-Oct-15 06:13N 38°01' W 075°56'23 5.6
2017-Oct-15 02:11N 37°40' W 076°06'11 2.3
2017-Oct-14 21:21N 37°35' W 076°19'18 5.6
2017-Oct-14 18:05N 37°53' W 076°11'3 7.2
2017-Oct-14 17:40N 37°55' W 076°11'2 7.0
2017-Oct-14 17:26N 37°57' W 076°11'12 6.4
2017-Oct-14 15:30N 38°09' W 076°09'4 6.2
2017-Oct-14 14:47N 38°13' W 076°06'1 5.3
2017-Oct-14 14:31N 38°13' W 076°04'3 5.1
2017-Oct-14 14:00N 38°12' W 076°02'2 4.3
2017-Oct-14 13:27N 38°13' W 075°59'  
Track history (hours):
 
Tides and Currents Weather Stations Pressure Air Temp Water Temp Dewpoint Dewpoint Depression Visibility Wind Speed Wind Dir Waves Ship Positions

Bob Shea Ex: Big Bob

Owner: BLESSEY ENTERPRISES INC, HARAHAN, LA. More information available from US FCC via Universal Licensing System and Coast Guard Vessel Documentation Center.

Last reported at 2017-Oct-18 13:55 UTC. Time now 2017-Oct-20 03:14 UTC.
Position N 38°15' W 075°50'.

Length 16 m; draft 2.6 m.

Type: Towing. MMSI: 366934030.

Date/timePositionNaut miles runAvg speedWind from/ knotsBaromVisibWave heightAir tempDewpointWater temp
2017-Oct-18 13:55N 38°15' W 075°50'5 5.6
2017-Oct-18 13:05N 38°13' W 075°55'0 6.4
2017-Oct-18 13:00N 38°12' W 075°56'2 4.3
2017-Oct-18 12:30N 38°13' W 075°58'0 0.1
2017-Oct-18 11:55N 38°13' W 075°58'0 0.0
2017-Oct-18 11:29N 38°13' W 075°58'0 0.0
2017-Oct-18 10:53N 38°13' W 075°58'0 0.0
2017-Oct-18 10:20N 38°13' W 075°58'0 0.2
2017-Oct-18 09:59N 38°13' W 075°58'2 4.7
2017-Oct-18 09:30N 38°12' W 075°56'3 5.6
2017-Oct-18 09:00N 38°14' W 075°52'3 3.3
2017-Oct-18 08:14N 38°15' W 075°50'5 4.7
2017-Oct-18 07:06N 38°12' W 075°55'1 5.4
2017-Oct-18 06:57N 38°12' W 075°57'10 5.1
2017-Oct-18 04:58N 38°11' W 076°09'12 6.6
2017-Oct-18 03:10N 38°01' W 076°18'1 6.2
2017-Oct-18 02:58N 38°01' W 076°20'3 6.6
2017-Oct-18 02:27N 38°02' W 076°24'3 6.6
2017-Oct-18 02:00N 38°02' W 076°28'3 6.2
2017-Oct-18 01:30N 38°02' W 076°32'2 4.0
2017-Oct-18 01:00N 38°02' W 076°34'0 0.2
2017-Oct-18 00:27N 38°02' W 076°35'0 0.0
2017-Oct-18 00:00N 38°02' W 076°35'0 0.0
2017-Oct-17 23:27N 38°02' W 076°35'0 0.0
2017-Oct-17 22:54N 38°02' W 076°35'0 0.0
2017-Oct-17 22:30N 38°02' W 076°35'0 0.0
2017-Oct-17 21:59N 38°02' W 076°35'0 0.0
2017-Oct-17 21:29N 38°02' W 076°35'0 0.0
2017-Oct-17 20:58N 38°02' W 076°35'0 0.0
2017-Oct-17 20:30N 38°02' W 076°35'0 0.0
2017-Oct-17 20:00N 38°02' W 076°35'0 0.0
2017-Oct-17 19:30N 38°02' W 076°35'0 0.0
2017-Oct-17 19:00N 38°02' W 076°35'0 0.0
2017-Oct-17 18:28N 38°02' W 076°35'0 0.0
2017-Oct-17 17:58N 38°02' W 076°35'0 0.0
2017-Oct-17 17:30N 38°02' W 076°35'0 0.0
2017-Oct-17 16:59N 38°02' W 076°35'0 0.0
2017-Oct-17 16:29N 38°02' W 076°35'0 0.0
2017-Oct-17 15:59N 38°02' W 076°35'0 0.0
2017-Oct-17 15:30N 38°02' W 076°35'0 0.0
2017-Oct-17 15:00N 38°02' W 076°35'0 0.0
2017-Oct-17 14:29N 38°02' W 076°35'0 0.0
2017-Oct-17 13:56N 38°02' W 076°35'0 0.0
2017-Oct-17 13:30N 38°02' W 076°35'0 0.0
2017-Oct-17 13:00N 38°02' W 076°35'0 0.0
2017-Oct-17 12:30N 38°02' W 076°35'0 0.0
2017-Oct-17 11:59N 38°02' W 076°35'0 0.0
2017-Oct-17 11:30N 38°02' W 076°35'0 0.0
2017-Oct-17 10:59N 38°02' W 076°35'0 0.0
2017-Oct-17 10:30N 38°02' W 076°35'0 0.0
2017-Oct-17 10:00N 38°02' W 076°35'0 0.0
2017-Oct-17 09:30N 38°02' W 076°35'0 0.0
2017-Oct-17 09:00N 38°02' W 076°35'0 0.0
2017-Oct-17 08:30N 38°02' W 076°35'0 0.0
2017-Oct-17 08:00N 38°02' W 076°35'0 0.0
2017-Oct-17 07:30N 38°02' W 076°35'0 0.0
2017-Oct-17 07:00N 38°02' W 076°35'0 0.0
2017-Oct-17 06:30N 38°02' W 076°35'0 0.0
2017-Oct-17 06:00N 38°02' W 076°35'0 0.0
2017-Oct-17 05:30N 38°02' W 076°35'0 0.0
2017-Oct-17 04:59N 38°02' W 076°35'0 0.0
2017-Oct-17 04:29N 38°02' W 076°35'0 0.0
2017-Oct-17 03:59N 38°02' W 076°35'0 0.0
2017-Oct-17 03:15N 38°02' W 076°35'0 0.0
2017-Oct-17 03:00N 38°02' W 076°35'0 0.0
2017-Oct-17 02:30N 38°02' W 076°35'0 0.0
2017-Oct-17 02:00N 38°02' W 076°35'0 0.0
2017-Oct-17 01:30N 38°02' W 076°35'0 0.0
2017-Oct-17 01:00N 38°02' W 076°35'0 0.0
2017-Oct-17 00:30N 38°02' W 076°35'0 0.0
2017-Oct-16 23:59N 38°02' W 076°35'0 0.0
2017-Oct-16 23:29N 38°02' W 076°35'0 0.0
2017-Oct-16 22:55N 38°02' W 076°35'0 0.0
2017-Oct-16 22:30N 38°02' W 076°35'0 0.0
2017-Oct-16 22:00N 38°02' W 076°35'0 0.0
2017-Oct-16 21:30N 38°02' W 076°35'0 0.0
2017-Oct-16 21:00N 38°02' W 076°35'0 0.0
2017-Oct-16 20:30N 38°02' W 076°35'0 0.0
2017-Oct-16 20:00N 38°02' W 076°35'0 0.0
2017-Oct-16 19:28N 38°02' W 076°35'0 0.0
2017-Oct-16 19:00N 38°02' W 076°35'0 0.0
2017-Oct-16 18:30N 38°02' W 076°35'0 0.0
2017-Oct-16 18:00N 38°02' W 076°35'0 0.0
2017-Oct-16 17:19N 38°02' W 076°35'0 0.0
2017-Oct-16 16:52N 38°02' W 076°35'0 0.0
2017-Oct-16 16:30N 38°02' W 076°35'0 0.0
2017-Oct-16 15:59N 38°02' W 076°35'0 0.0
2017-Oct-16 15:29N 38°02' W 076°35'0 0.0
2017-Oct-16 14:57N 38°02' W 076°35'0 0.0
2017-Oct-16 14:24N 38°02' W 076°35'0 0.0
2017-Oct-16 13:24N 38°02' W 076°35'0 0.0
2017-Oct-16 12:59N 38°02' W 076°35'0 0.0
2017-Oct-16 12:29N 38°02' W 076°35'0 0.0
2017-Oct-16 11:59N 38°02' W 076°35'0 0.0
2017-Oct-16 11:29N 38°02' W 076°35'0 0.0
2017-Oct-16 11:00N 38°02' W 076°35'0 0.0
2017-Oct-16 10:30N 38°02' W 076°35'0 0.0
2017-Oct-16 10:00N 38°02' W 076°35'0 0.0
2017-Oct-16 09:30N 38°02' W 076°35'0 0.0
2017-Oct-16 09:00N 38°02' W 076°35'0 0.0
2017-Oct-16 08:30N 38°02' W 076°35'0 0.0
2017-Oct-16 08:00N 38°02' W 076°35'0 0.0
2017-Oct-16 07:29N 38°02' W 076°35'0 0.0
2017-Oct-16 07:00N 38°02' W 076°35'0 0.0
2017-Oct-16 06:28N 38°02' W 076°35'0 0.0
2017-Oct-16 06:00N 38°02' W 076°35'0 0.0
2017-Oct-16 05:30N 38°02' W 076°35'0 0.0
2017-Oct-16 05:00N 38°02' W 076°35'0 0.0
2017-Oct-16 04:30N 38°02' W 076°35'0 0.0
2017-Oct-16 03:57N 38°02' W 076°35'0 0.0
2017-Oct-16 03:29N 38°02' W 076°35'0 0.0
2017-Oct-16 02:59N 38°02' W 076°35'0 0.0
2017-Oct-16 02:29N 38°02' W 076°35'0 0.0
2017-Oct-16 01:59N 38°02' W 076°35'0 0.0
2017-Oct-16 01:29N 38°02' W 076°35'0 0.0
2017-Oct-16 00:59N 38°02' W 076°35'0 0.0
2017-Oct-16 00:30N 38°02' W 076°34'0 0.1
2017-Oct-16 00:00N 38°02' W 076°35'0 0.2
2017-Oct-15 23:30N 38°02' W 076°34'4 6.3
2017-Oct-15 22:56N 38°02' W 076°30'2 4.7
2017-Oct-15 22:30N 38°02' W 076°27'3 6.3
2017-Oct-15 21:59N 38°02' W 076°23'3 6.2
2017-Oct-15 21:30N 38°01' W 076°19'40 5.2
2017-Oct-15 13:48N 38°22' W 075°36'0 0.4
2017-Oct-15 13:26N 38°22' W 075°36'0 0.7
2017-Oct-15 12:58N 38°22' W 075°36'5 4.1
2017-Oct-15 11:43N 38°21' W 075°43'2 4.8
2017-Oct-15 11:23N 38°19' W 075°44'2 4.6
2017-Oct-15 11:00N 38°18' W 075°46'2 4.5
2017-Oct-15 10:31N 38°16' W 075°47'3 4.3
2017-Oct-15 09:55N 38°15' W 075°50'2 4.8
2017-Oct-15 09:31N 38°14' W 075°52'3 4.2
2017-Oct-15 08:51N 38°13' W 075°55'6 4.3
2017-Oct-15 07:27N 38°07' W 075°59'3 5.2
2017-Oct-15 06:56N 38°05' W 075°58'4 5.4
2017-Oct-15 06:13N 38°01' W 075°56'23 5.6
2017-Oct-15 02:11N 37°40' W 076°06'11 2.3
2017-Oct-14 21:21N 37°35' W 076°19'18 5.6
2017-Oct-14 18:05N 37°53' W 076°11'3 7.2
2017-Oct-14 17:40N 37°55' W 076°11'2 7.0
2017-Oct-14 17:26N 37°57' W 076°11'12 6.4
2017-Oct-14 15:30N 38°09' W 076°09'4 6.2
2017-Oct-14 14:47N 38°13' W 076°06'1 5.3
2017-Oct-14 14:31N 38°13' W 076°04'3 5.1
2017-Oct-14 14:00N 38°12' W 076°02'2 4.3
2017-Oct-14 13:27N 38°13' W 075°59'  

Dump ship's entire track history